sensor_id;sensor_type;location;lat;lon;timestamp;temperature;humidity
21676;DHT22;10999;51.332;9.458;2023-08-30T00:01:11;11.20;99.60
21676;DHT22;10999;51.332;9.458;2023-08-30T00:03:38;11.20;99.70
21676;DHT22;10999;51.332;9.458;2023-08-30T00:06:05;11.10;99.70
21676;DHT22;10999;51.332;9.458;2023-08-30T00:08:33;11.10;99.60
21676;DHT22;10999;51.332;9.458;2023-08-30T00:11:00;11.10;99.60
21676;DHT22;10999;51.332;9.458;2023-08-30T00:13:31;11.00;99.30
21676;DHT22;10999;51.332;9.458;2023-08-30T00:15:59;11.00;99.20
21676;DHT22;10999;51.332;9.458;2023-08-30T00:18:26;11.00;99.40
21676;DHT22;10999;51.332;9.458;2023-08-30T00:20:53;10.90;99.60
21676;DHT22;10999;51.332;9.458;2023-08-30T00:23:20;10.90;99.30
21676;DHT22;10999;51.332;9.458;2023-08-30T00:25:48;10.90;99.60
21676;DHT22;10999;51.332;9.458;2023-08-30T00:28:15;10.80;99.80
21676;DHT22;10999;51.332;9.458;2023-08-30T00:30:41;10.80;99.90
21676;DHT22;10999;51.332;9.458;2023-08-30T00:33:08;10.80;99.90
21676;DHT22;10999;51.332;9.458;2023-08-30T00:35:35;10.70;99.90
21676;DHT22;10999;51.332;9.458;2023-08-30T00:38:02;10.70;99.90
21676;DHT22;10999;51.332;9.458;2023-08-30T00:40:37;10.70;99.90
21676;DHT22;10999;51.332;9.458;2023-08-30T00:43:03;10.70;99.90
21676;DHT22;10999;51.332;9.458;2023-08-30T00:45:30;10.60;99.90
21676;DHT22;10999;51.332;9.458;2023-08-30T00:47:57;10.60;99.90
21676;DHT22;10999;51.332;9.458;2023-08-30T00:50:24;10.60;99.90
21676;DHT22;10999;51.332;9.458;2023-08-30T00:52:50;10.60;99.90
21676;DHT22;10999;51.332;9.458;2023-08-30T00:55:17;10.60;99.90
21676;DHT22;10999;51.332;9.458;2023-08-30T00:57:44;10.60;99.90
21676;DHT22;10999;51.332;9.458;2023-08-30T01:00:14;10.60;99.90
21676;DHT22;10999;51.332;9.458;2023-08-30T01:02:40;10.50;99.90
21676;DHT22;10999;51.332;9.458;2023-08-30T01:05:08;10.50;99.90
21676;DHT22;10999;51.332;9.458;2023-08-30T01:07:35;10.50;99.90
21676;DHT22;10999;51.332;9.458;2023-08-30T01:10:02;10.40;99.90
21676;DHT22;10999;51.332;9.458;2023-08-30T01:12:40;10.40;99.90
21676;DHT22;10999;51.332;9.458;2023-08-30T01:15:12;10.40;99.90
21676;DHT22;10999;51.332;9.458;2023-08-30T01:17:41;10.40;99.90
21676;DHT22;10999;51.332;9.458;2023-08-30T01:20:10;10.40;99.90
21676;DHT22;10999;51.332;9.458;2023-08-30T01:28:06;10.30;99.90
21676;DHT22;10999;51.332;9.458;2023-08-30T01:30:34;10.20;99.90
21676;DHT22;10999;51.332;9.458;2023-08-30T01:33:04;10.20;99.90
21676;DHT22;10999;51.332;9.458;2023-08-30T01:35:33;10.20;99.90
21676;DHT22;10999;51.332;9.458;2023-08-30T01:38:03;10.10;99.90
21676;DHT22;10999;51.332;9.458;2023-08-30T01:40:35;10.10;99.90
21676;DHT22;10999;51.332;9.458;2023-08-30T01:43:04;10.10;99.90
21676;DHT22;10999;51.332;9.458;2023-08-30T01:45:33;10.00;99.90
21676;DHT22;10999;51.332;9.458;2023-08-30T01:48:02;10.00;99.90
21676;DHT22;10999;51.332;9.458;2023-08-30T01:50:30;10.00;99.90
21676;DHT22;10999;51.332;9.458;2023-08-30T01:52:57;10.00;99.90
21676;DHT22;10999;51.332;9.458;2023-08-30T01:55:26;10.00;99.90
21676;DHT22;10999;51.332;9.458;2023-08-30T01:57:54;9.90;99.90
21676;DHT22;10999;51.332;9.458;2023-08-30T02:00:21;9.90;99.90
21676;DHT22;10999;51.332;9.458;2023-08-30T02:02:48;9.90;99.90
21676;DHT22;10999;51.332;9.458;2023-08-30T02:05:15;9.80;99.90
21676;DHT22;10999;51.332;9.458;2023-08-30T02:08:15;9.80;99.90
21676;DHT22;10999;51.332;9.458;2023-08-30T02:10:51;9.80;99.90
21676;DHT22;10999;51.332;9.458;2023-08-30T02:13:23;9.80;99.90
21676;DHT22;10999;51.332;9.458;2023-08-30T02:15:54;9.70;99.90
21676;DHT22;10999;51.332;9.458;2023-08-30T02:18:21;9.70;99.90
21676;DHT22;10999;51.332;9.458;2023-08-30T02:20:48;9.70;99.90
21676;DHT22;10999;51.332;9.458;2023-08-30T02:23:15;9.70;99.90
21676;DHT22;10999;51.332;9.458;2023-08-30T02:25:41;9.70;99.90
21676;DHT22;10999;51.332;9.458;2023-08-30T02:28:08;9.70;99.90
21676;DHT22;10999;51.332;9.458;2023-08-30T02:30:36;9.70;99.90
21676;DHT22;10999;51.332;9.458;2023-08-30T02:33:02;9.60;99.90
21676;DHT22;10999;51.332;9.458;2023-08-30T02:35:29;9.60;99.90
21676;DHT22;10999;51.332;9.458;2023-08-30T02:37:56;9.60;99.90
21676;DHT22;10999;51.332;9.458;2023-08-30T02:40:22;9.60;99.90
21676;DHT22;10999;51.332;9.458;2023-08-30T02:42:49;9.60;99.90
21676;DHT22;10999;51.332;9.458;2023-08-30T02:45:16;9.60;99.90
21676;DHT22;10999;51.332;9.458;2023-08-30T02:47:44;9.60;99.90
21676;DHT22;10999;51.332;9.458;2023-08-30T02:50:11;9.60;99.90
21676;DHT22;10999;51.332;9.458;2023-08-30T02:52:38;9.60;99.90
21676;DHT22;10999;51.332;9.458;2023-08-30T02:55:05;9.60;99.90
21676;DHT22;10999;51.332;9.458;2023-08-30T02:57:32;9.60;99.90
21676;DHT22;10999;51.332;9.458;2023-08-30T02:59:58;9.60;99.90
21676;DHT22;10999;51.332;9.458;2023-08-30T03:02:25;9.70;99.90
21676;DHT22;10999;51.332;9.458;2023-08-30T03:04:52;9.80;99.90
21676;DHT22;10999;51.332;9.458;2023-08-30T03:07:19;9.90;99.90
21676;DHT22;10999;51.332;9.458;2023-08-30T03:09:46;9.90;99.90
21676;DHT22;10999;51.332;9.458;2023-08-30T03:12:12;9.90;99.90
21676;DHT22;10999;51.332;9.458;2023-08-30T03:14:39;10.00;99.90
21676;DHT22;10999;51.332;9.458;2023-08-30T03:17:06;10.10;99.90
21676;DHT22;10999;51.332;9.458;2023-08-30T03:19:32;10.10;99.90
21676;DHT22;10999;51.332;9.458;2023-08-30T03:21:59;10.10;99.90
21676;DHT22;10999;51.332;9.458;2023-08-30T03:24:26;10.20;99.90
21676;DHT22;10999;51.332;9.458;2023-08-30T03:26:53;10.20;99.90
21676;DHT22;10999;51.332;9.458;2023-08-30T03:29:20;10.30;99.90
21676;DHT22;10999;51.332;9.458;2023-08-30T03:31:47;10.30;99.90
21676;DHT22;10999;51.332;9.458;2023-08-30T03:34:14;10.30;99.90
21676;DHT22;10999;51.332;9.458;2023-08-30T03:36:41;10.30;99.90
21676;DHT22;10999;51.332;9.458;2023-08-30T03:39:10;10.40;99.90
21676;DHT22;10999;51.332;9.458;2023-08-30T03:41:38;10.40;99.90
21676;DHT22;10999;51.332;9.458;2023-08-30T03:44:05;10.40;99.90
21676;DHT22;10999;51.332;9.458;2023-08-30T03:46:32;10.40;99.90
21676;DHT22;10999;51.332;9.458;2023-08-30T03:48:58;10.40;99.90
21676;DHT22;10999;51.332;9.458;2023-08-30T03:51:25;10.50;99.90
21676;DHT22;10999;51.332;9.458;2023-08-30T03:53:52;10.60;99.90
21676;DHT22;10999;51.332;9.458;2023-08-30T03:56:19;10.60;99.90
21676;DHT22;10999;51.332;9.458;2023-08-30T03:58:46;10.60;99.90
21676;DHT22;10999;51.332;9.458;2023-08-30T04:01:12;10.60;99.90
21676;DHT22;10999;51.332;9.458;2023-08-30T04:03:39;10.70;99.90
21676;DHT22;10999;51.332;9.458;2023-08-30T04:06:06;10.70;99.90
21676;DHT22;10999;51.332;9.458;2023-08-30T04:08:33;10.80;99.90
21676;DHT22;10999;51.332;9.458;2023-08-30T04:11:01;10.90;99.90
21676;DHT22;10999;51.332;9.458;2023-08-30T04:13:28;10.90;99.90
21676;DHT22;10999;51.332;9.458;2023-08-30T04:15:55;10.90;99.90
21676;DHT22;10999;51.332;9.458;2023-08-30T04:18:25;11.00;99.90
21676;DHT22;10999;51.332;9.458;2023-08-30T04:20:51;11.00;99.90
21676;DHT22;10999;51.332;9.458;2023-08-30T04:23:18;11.00;99.90
21676;DHT22;10999;51.332;9.458;2023-08-30T04:25:45;11.00;99.90
21676;DHT22;10999;51.332;9.458;2023-08-30T04:28:12;11.00;99.90
21676;DHT22;10999;51.332;9.458;2023-08-30T04:30:38;11.10;99.90
21676;DHT22;10999;51.332;9.458;2023-08-30T04:33:05;11.10;99.90
21676;DHT22;10999;51.332;9.458;2023-08-30T04:35:32;11.10;99.90
21676;DHT22;10999;51.332;9.458;2023-08-30T04:38:00;11.10;99.90
21676;DHT22;10999;51.332;9.458;2023-08-30T04:40:27;11.10;99.90
21676;DHT22;10999;51.332;9.458;2023-08-30T04:42:55;11.20;99.90
21676;DHT22;10999;51.332;9.458;2023-08-30T04:45:22;11.20;99.90
21676;DHT22;10999;51.332;9.458;2023-08-30T04:47:48;11.20;99.90
21676;DHT22;10999;51.332;9.458;2023-08-30T04:50:15;11.30;99.90
21676;DHT22;10999;51.332;9.458;2023-08-30T04:52:43;11.30;99.90
21676;DHT22;10999;51.332;9.458;2023-08-30T04:55:10;11.40;99.90
21676;DHT22;10999;51.332;9.458;2023-08-30T04:57:37;11.50;99.90
21676;DHT22;10999;51.332;9.458;2023-08-30T05:00:04;11.50;99.90
21676;DHT22;10999;51.332;9.458;2023-08-30T05:02:31;11.50;99.90
21676;DHT22;10999;51.332;9.458;2023-08-30T05:04:58;11.60;99.90
21676;DHT22;10999;51.332;9.458;2023-08-30T05:07:25;11.60;99.90
21676;DHT22;10999;51.332;9.458;2023-08-30T05:09:52;11.60;99.90
21676;DHT22;10999;51.332;9.458;2023-08-30T05:12:19;11.60;99.90
21676;DHT22;10999;51.332;9.458;2023-08-30T05:14:45;11.60;99.90
21676;DHT22;10999;51.332;9.458;2023-08-30T05:17:12;11.60;99.90
21676;DHT22;10999;51.332;9.458;2023-08-30T05:19:39;11.60;99.90
21676;DHT22;10999;51.332;9.458;2023-08-30T05:22:05;11.60;99.90
21676;DHT22;10999;51.332;9.458;2023-08-30T05:24:32;11.70;99.90
21676;DHT22;10999;51.332;9.458;2023-08-30T05:27:00;11.60;99.90
21676;DHT22;10999;51.332;9.458;2023-08-30T05:29:26;11.70;99.90
21676;DHT22;10999;51.332;9.458;2023-08-30T05:31:53;11.70;99.90
21676;DHT22;10999;51.332;9.458;2023-08-30T05:34:20;11.80;99.90
21676;DHT22;10999;51.332;9.458;2023-08-30T05:36:46;11.80;99.90
21676;DHT22;10999;51.332;9.458;2023-08-30T05:39:13;11.90;99.90
21676;DHT22;10999;51.332;9.458;2023-08-30T05:41:41;11.90;99.90
21676;DHT22;10999;51.332;9.458;2023-08-30T05:44:07;11.90;99.90
21676;DHT22;10999;51.332;9.458;2023-08-30T05:46:35;12.00;99.90
21676;DHT22;10999;51.332;9.458;2023-08-30T05:49:01;12.00;99.90
21676;DHT22;10999;51.332;9.458;2023-08-30T05:51:29;12.10;99.90
21676;DHT22;10999;51.332;9.458;2023-08-30T05:53:56;12.10;99.90
21676;DHT22;10999;51.332;9.458;2023-08-30T05:56:23;12.20;99.90
21676;DHT22;10999;51.332;9.458;2023-08-30T05:58:49;12.20;99.90
21676;DHT22;10999;51.332;9.458;2023-08-30T06:01:18;12.20;99.90
21676;DHT22;10999;51.332;9.458;2023-08-30T06:03:45;12.30;99.90
21676;DHT22;10999;51.332;9.458;2023-08-30T06:06:13;12.30;99.90
21676;DHT22;10999;51.332;9.458;2023-08-30T06:08:40;12.40;99.90
21676;DHT22;10999;51.332;9.458;2023-08-30T06:11:07;12.40;99.90
21676;DHT22;10999;51.332;9.458;2023-08-30T06:13:34;12.40;99.90
21676;DHT22;10999;51.332;9.458;2023-08-30T06:16:00;12.40;99.90
21676;DHT22;10999;51.332;9.458;2023-08-30T06:18:30;12.40;99.90
21676;DHT22;10999;51.332;9.458;2023-08-30T06:20:57;12.40;99.90
21676;DHT22;10999;51.332;9.458;2023-08-30T06:23:23;12.40;99.90
21676;DHT22;10999;51.332;9.458;2023-08-30T06:25:56;12.50;99.90
21676;DHT22;10999;51.332;9.458;2023-08-30T06:28:23;12.50;99.90
21676;DHT22;10999;51.332;9.458;2023-08-30T06:30:50;12.50;99.90
21676;DHT22;10999;51.332;9.458;2023-08-30T06:33:17;12.50;99.90
21676;DHT22;10999;51.332;9.458;2023-08-30T06:35:47;12.60;99.90
21676;DHT22;10999;51.332;9.458;2023-08-30T06:38:13;12.50;99.90
21676;DHT22;10999;51.332;9.458;2023-08-30T06:40:44;12.60;99.90
21676;DHT22;10999;51.332;9.458;2023-08-30T06:43:12;12.60;99.90
21676;DHT22;10999;51.332;9.458;2023-08-30T06:45:39;12.60;99.90
21676;DHT22;10999;51.332;9.458;2023-08-30T06:48:06;12.70;99.90
21676;DHT22;10999;51.332;9.458;2023-08-30T06:50:35;12.80;99.90
21676;DHT22;10999;51.332;9.458;2023-08-30T06:53:02;12.80;99.90
21676;DHT22;10999;51.332;9.458;2023-08-30T06:55:29;12.70;99.90
21676;DHT22;10999;51.332;9.458;2023-08-30T06:57:56;12.80;99.90
21676;DHT22;10999;51.332;9.458;2023-08-30T07:00:23;12.90;99.90
21676;DHT22;10999;51.332;9.458;2023-08-30T07:02:49;13.00;99.90
21676;DHT22;10999;51.332;9.458;2023-08-30T07:05:16;13.20;99.90
21676;DHT22;10999;51.332;9.458;2023-08-30T07:07:43;13.30;99.90
21676;DHT22;10999;51.332;9.458;2023-08-30T07:10:10;13.40;99.90
21676;DHT22;10999;51.332;9.458;2023-08-30T07:12:36;13.50;99.90
21676;DHT22;10999;51.332;9.458;2023-08-30T07:15:03;13.60;99.90
21676;DHT22;10999;51.332;9.458;2023-08-30T07:17:30;13.70;99.90
21676;DHT22;10999;51.332;9.458;2023-08-30T07:20:17;13.70;99.90
21676;DHT22;10999;51.332;9.458;2023-08-30T07:22:44;13.70;99.90
21676;DHT22;10999;51.332;9.458;2023-08-30T07:25:10;13.80;99.90
21676;DHT22;10999;51.332;9.458;2023-08-30T07:27:38;13.90;99.90
21676;DHT22;10999;51.332;9.458;2023-08-30T07:30:05;13.80;99.90
21676;DHT22;10999;51.332;9.458;2023-08-30T07:32:32;13.80;99.90
21676;DHT22;10999;51.332;9.458;2023-08-30T07:34:59;13.70;99.90
21676;DHT22;10999;51.332;9.458;2023-08-30T07:37:26;13.70;99.90
21676;DHT22;10999;51.332;9.458;2023-08-30T07:39:52;13.70;99.90
21676;DHT22;10999;51.332;9.458;2023-08-30T07:42:20;13.80;99.90
21676;DHT22;10999;51.332;9.458;2023-08-30T07:44:46;13.90;99.90
21676;DHT22;10999;51.332;9.458;2023-08-30T07:47:13;14.00;99.90
21676;DHT22;10999;51.332;9.458;2023-08-30T07:49:41;13.90;99.60
21676;DHT22;10999;51.332;9.458;2023-08-30T07:52:08;14.00;99.80
21676;DHT22;10999;51.332;9.458;2023-08-30T07:54:38;13.90;99.00
21676;DHT22;10999;51.332;9.458;2023-08-30T07:57:06;14.00;98.70
21676;DHT22;10999;51.332;9.458;2023-08-30T07:59:34;14.00;98.90
21676;DHT22;10999;51.332;9.458;2023-08-30T08:02:02;14.10;99.40
21676;DHT22;10999;51.332;9.458;2023-08-30T08:04:34;14.20;98.00
21676;DHT22;10999;51.332;9.458;2023-08-30T08:07:02;14.30;98.10
21676;DHT22;10999;51.332;9.458;2023-08-30T08:09:31;14.30;98.20
21676;DHT22;10999;51.332;9.458;2023-08-30T08:11:57;14.30;97.10
21676;DHT22;10999;51.332;9.458;2023-08-30T08:14:24;14.50;98.10
21676;DHT22;10999;51.332;9.458;2023-08-30T08:16:51;14.60;96.90
21676;DHT22;10999;51.332;9.458;2023-08-30T08:19:18;14.70;95.70
21676;DHT22;10999;51.332;9.458;2023-08-30T08:21:50;14.80;94.90
21676;DHT22;10999;51.332;9.458;2023-08-30T08:24:16;14.90;94.40
21676;DHT22;10999;51.332;9.458;2023-08-30T08:26:43;14.90;94.10
21676;DHT22;10999;51.332;9.458;2023-08-30T08:29:10;15.10;94.10
21676;DHT22;10999;51.332;9.458;2023-08-30T08:31:36;15.30;92.20
21676;DHT22;10999;51.332;9.458;2023-08-30T08:34:11;15.50;92.10
21676;DHT22;10999;51.332;9.458;2023-08-30T08:36:39;15.60;90.50
21676;DHT22;10999;51.332;9.458;2023-08-30T08:39:06;15.70;89.80
21676;DHT22;10999;51.332;9.458;2023-08-30T08:41:38;15.90;89.60
21676;DHT22;10999;51.332;9.458;2023-08-30T08:44:06;16.00;90.10
21676;DHT22;10999;51.332;9.458;2023-08-30T08:46:38;16.30;90.40
21676;DHT22;10999;51.332;9.458;2023-08-30T08:49:09;16.30;86.30
21676;DHT22;10999;51.332;9.458;2023-08-30T08:51:37;16.40;87.80
21676;DHT22;10999;51.332;9.458;2023-08-30T08:54:05;16.50;85.30
21676;DHT22;10999;51.332;9.458;2023-08-30T08:56:32;16.60;86.20
21676;DHT22;10999;51.332;9.458;2023-08-30T08:59:03;16.70;85.20
21676;DHT22;10999;51.332;9.458;2023-08-30T09:01:30;16.60;83.70
21676;DHT22;10999;51.332;9.458;2023-08-30T09:04:05;16.70;85.30
21676;DHT22;10999;51.332;9.458;2023-08-30T09:06:33;16.90;86.50
21676;DHT22;10999;51.332;9.458;2023-08-30T09:09:04;17.00;84.60
21676;DHT22;10999;51.332;9.458;2023-08-30T09:11:32;17.20;84.50
21676;DHT22;10999;51.332;9.458;2023-08-30T09:14:17;17.40;84.40
21676;DHT22;10999;51.332;9.458;2023-08-30T09:19:21;17.60;81.50
21676;DHT22;10999;51.332;9.458;2023-08-30T09:21:56;17.70;78.00
21676;DHT22;10999;51.332;9.458;2023-08-30T09:24:23;17.70;81.20
21676;DHT22;10999;51.332;9.458;2023-08-30T09:26:52;17.80;80.70
21676;DHT22;10999;51.332;9.458;2023-08-30T09:29:20;17.90;81.10
21676;DHT22;10999;51.332;9.458;2023-08-30T09:31:51;18.10;78.60
21676;DHT22;10999;51.332;9.458;2023-08-30T09:34:22;18.10;78.90
21676;DHT22;10999;51.332;9.458;2023-08-30T09:36:51;18.20;77.00
21676;DHT22;10999;51.332;9.458;2023-08-30T09:39:18;18.30;77.90
21676;DHT22;10999;51.332;9.458;2023-08-30T09:41:46;18.30;77.20
21676;DHT22;10999;51.332;9.458;2023-08-30T09:44:15;18.30;76.50
21676;DHT22;10999;51.332;9.458;2023-08-30T09:46:53;18.40;75.30
21676;DHT22;10999;51.332;9.458;2023-08-30T09:49:24;18.50;78.50
21676;DHT22;10999;51.332;9.458;2023-08-30T09:51:53;18.60;74.80
21676;DHT22;10999;51.332;9.458;2023-08-30T09:54:27;18.70;75.10
21676;DHT22;10999;51.332;9.458;2023-08-30T09:56:59;18.60;73.60
21676;DHT22;10999;51.332;9.458;2023-08-30T09:59:27;18.70;77.50
21676;DHT22;10999;51.332;9.458;2023-08-30T10:01:54;18.60;72.70
21676;DHT22;10999;51.332;9.458;2023-08-30T10:04:23;18.70;75.10
21676;DHT22;10999;51.332;9.458;2023-08-30T10:06:51;18.60;72.70
21676;DHT22;10999;51.332;9.458;2023-08-30T10:09:19;18.70;73.00
21676;DHT22;10999;51.332;9.458;2023-08-30T10:11:47;18.70;72.90
21676;DHT22;10999;51.332;9.458;2023-08-30T10:14:14;18.70;74.90
21676;DHT22;10999;51.332;9.458;2023-08-30T10:16:42;18.90;72.90
21676;DHT22;10999;51.332;9.458;2023-08-30T10:19:16;19.00;72.20
21676;DHT22;10999;51.332;9.458;2023-08-30T10:21:48;19.10;71.30
21676;DHT22;10999;51.332;9.458;2023-08-30T10:24:17;19.30;71.50
21676;DHT22;10999;51.332;9.458;2023-08-30T10:27:02;19.40;68.30
21676;DHT22;10999;51.332;9.458;2023-08-30T10:29:32;19.30;67.10
21676;DHT22;10999;51.332;9.458;2023-08-30T10:32:04;19.20;67.10
21676;DHT22;10999;51.332;9.458;2023-08-30T10:34:35;19.30;68.20
21676;DHT22;10999;51.332;9.458;2023-08-30T10:37:06;19.40;67.70
21676;DHT22;10999;51.332;9.458;2023-08-30T10:39:37;19.50;64.40
21676;DHT22;10999;51.332;9.458;2023-08-30T10:42:14;19.40;62.20
21676;DHT22;10999;51.332;9.458;2023-08-30T10:44:56;19.40;61.70
21676;DHT22;10999;51.332;9.458;2023-08-30T10:47:39;19.60;66.20
21676;DHT22;10999;51.332;9.458;2023-08-30T10:50:11;19.70;65.30
21676;DHT22;10999;51.332;9.458;2023-08-30T10:52:38;19.80;61.20
21676;DHT22;10999;51.332;9.458;2023-08-30T10:55:09;19.90;59.90
21676;DHT22;10999;51.332;9.458;2023-08-30T10:57:37;19.60;59.10
21676;DHT22;10999;51.332;9.458;2023-08-30T11:00:22;19.70;61.40
21676;DHT22;10999;51.332;9.458;2023-08-30T11:02:50;19.70;58.40
21676;DHT22;10999;51.332;9.458;2023-08-30T11:05:20;19.90;61.40
21676;DHT22;10999;51.332;9.458;2023-08-30T11:07:47;20.00;59.20
21676;DHT22;10999;51.332;9.458;2023-08-30T11:10:16;19.90;56.50
21676;DHT22;10999;51.332;9.458;2023-08-30T11:12:44;20.10;55.70
21676;DHT22;10999;51.332;9.458;2023-08-30T11:15:13;20.00;55.30
21676;DHT22;10999;51.332;9.458;2023-08-30T11:17:44;19.90;55.70
21676;DHT22;10999;51.332;9.458;2023-08-30T11:20:13;20.00;55.40
21676;DHT22;10999;51.332;9.458;2023-08-30T11:22:46;19.90;55.00
21676;DHT22;10999;51.332;9.458;2023-08-30T11:25:13;19.80;56.10
21676;DHT22;10999;51.332;9.458;2023-08-30T11:27:41;19.90;60.30
21676;DHT22;10999;51.332;9.458;2023-08-30T11:30:09;20.10;59.00
21676;DHT22;10999;51.332;9.458;2023-08-30T11:32:41;20.30;58.30
21676;DHT22;10999;51.332;9.458;2023-08-30T11:35:10;20.50;54.40
21676;DHT22;10999;51.332;9.458;2023-08-30T11:37:36;20.40;52.80
21676;DHT22;10999;51.332;9.458;2023-08-30T11:40:04;20.20;52.50
21676;DHT22;10999;51.332;9.458;2023-08-30T11:42:33;20.10;52.70
21676;DHT22;10999;51.332;9.458;2023-08-30T11:44:59;19.90;50.40
21676;DHT22;10999;51.332;9.458;2023-08-30T11:47:27;19.90;52.00
21676;DHT22;10999;51.332;9.458;2023-08-30T11:49:56;20.10;50.50
21676;DHT22;10999;51.332;9.458;2023-08-30T11:52:24;20.40;50.50
21676;DHT22;10999;51.332;9.458;2023-08-30T11:54:51;20.80;51.10
21676;DHT22;10999;51.332;9.458;2023-08-30T11:57:19;21.10;48.60
21676;DHT22;10999;51.332;9.458;2023-08-30T11:59:46;21.40;48.30
21676;DHT22;10999;51.332;9.458;2023-08-30T12:02:15;21.30;41.20
21676;DHT22;10999;51.332;9.458;2023-08-30T12:04:46;21.00;40.50
21676;DHT22;10999;51.332;9.458;2023-08-30T12:07:26;20.80;40.70
21676;DHT22;10999;51.332;9.458;2023-08-30T12:10:07;20.70;39.80
21676;DHT22;10999;51.332;9.458;2023-08-30T12:12:34;20.50;41.30
21676;DHT22;10999;51.332;9.458;2023-08-30T12:15:13;20.40;40.80
21676;DHT22;10999;51.332;9.458;2023-08-30T12:17:41;20.30;40.80
21676;DHT22;10999;51.332;9.458;2023-08-30T12:20:18;20.10;40.60
21676;DHT22;10999;51.332;9.458;2023-08-30T12:22:47;19.90;41.00
21676;DHT22;10999;51.332;9.458;2023-08-30T12:25:19;19.60;42.10
21676;DHT22;10999;51.332;9.458;2023-08-30T12:27:47;19.40;42.80
21676;DHT22;10999;51.332;9.458;2023-08-30T12:30:17;19.30;43.50
21676;DHT22;10999;51.332;9.458;2023-08-30T12:32:44;19.20;43.60
21676;DHT22;10999;51.332;9.458;2023-08-30T12:35:11;19.20;45.00
21676;DHT22;10999;51.332;9.458;2023-08-30T12:37:38;19.20;43.60
21676;DHT22;10999;51.332;9.458;2023-08-30T12:40:05;19.20;44.20
21676;DHT22;10999;51.332;9.458;2023-08-30T12:42:34;19.20;45.30
21676;DHT22;10999;51.332;9.458;2023-08-30T12:45:01;19.20;46.40
21676;DHT22;10999;51.332;9.458;2023-08-30T12:47:30;19.20;46.60
21676;DHT22;10999;51.332;9.458;2023-08-30T12:49:56;19.30;45.90
21676;DHT22;10999;51.332;9.458;2023-08-30T12:52:23;19.50;46.20
21676;DHT22;10999;51.332;9.458;2023-08-30T12:54:50;19.60;44.40
21676;DHT22;10999;51.332;9.458;2023-08-30T12:57:18;19.70;45.20
21676;DHT22;10999;51.332;9.458;2023-08-30T12:59:45;19.70;45.00
21676;DHT22;10999;51.332;9.458;2023-08-30T13:02:12;19.70;45.90
21676;DHT22;10999;51.332;9.458;2023-08-30T13:04:38;19.80;47.80
21676;DHT22;10999;51.332;9.458;2023-08-30T13:07:05;19.80;46.60
21676;DHT22;10999;51.332;9.458;2023-08-30T13:09:32;19.80;45.50
21676;DHT22;10999;51.332;9.458;2023-08-30T13:11:59;19.80;44.50
21676;DHT22;10999;51.332;9.458;2023-08-30T13:14:25;19.80;45.40
21676;DHT22;10999;51.332;9.458;2023-08-30T13:16:52;19.80;43.40
21676;DHT22;10999;51.332;9.458;2023-08-30T13:19:19;19.90;47.00
21676;DHT22;10999;51.332;9.458;2023-08-30T13:21:46;19.90;44.10
21676;DHT22;10999;51.332;9.458;2023-08-30T13:24:12;20.10;46.00
21676;DHT22;10999;51.332;9.458;2023-08-30T13:26:39;20.10;42.40
21676;DHT22;10999;51.332;9.458;2023-08-30T13:29:06;20.20;43.80
21676;DHT22;10999;51.332;9.458;2023-08-30T13:31:34;20.60;47.10
21676;DHT22;10999;51.332;9.458;2023-08-30T13:34:00;20.90;42.10
21676;DHT22;10999;51.332;9.458;2023-08-30T13:36:27;21.10;40.20
21676;DHT22;10999;51.332;9.458;2023-08-30T13:38:57;21.30;41.40
21676;DHT22;10999;51.332;9.458;2023-08-30T13:41:24;21.60;43.90
21676;DHT22;10999;51.332;9.458;2023-08-30T13:43:51;21.70;39.90
21676;DHT22;10999;51.332;9.458;2023-08-30T13:46:17;21.60;37.40
21676;DHT22;10999;51.332;9.458;2023-08-30T13:48:45;21.60;38.10
21676;DHT22;10999;51.332;9.458;2023-08-30T13:51:12;21.40;39.80
21676;DHT22;10999;51.332;9.458;2023-08-30T13:53:39;21.40;40.20
21676;DHT22;10999;51.332;9.458;2023-08-30T13:56:05;21.40;38.20
21676;DHT22;10999;51.332;9.458;2023-08-30T13:58:32;21.20;39.70
21676;DHT22;10999;51.332;9.458;2023-08-30T14:00:58;21.20;42.20
21676;DHT22;10999;51.332;9.458;2023-08-30T14:03:25;21.00;42.50
21676;DHT22;10999;51.332;9.458;2023-08-30T14:05:52;20.80;41.60
21676;DHT22;10999;51.332;9.458;2023-08-30T14:08:19;20.60;43.40
21676;DHT22;10999;51.332;9.458;2023-08-30T14:10:46;20.40;43.60
21676;DHT22;10999;51.332;9.458;2023-08-30T14:13:12;20.50;45.70
21676;DHT22;10999;51.332;9.458;2023-08-30T14:15:41;20.70;43.40
21676;DHT22;10999;51.332;9.458;2023-08-30T14:18:08;20.80;42.70
21676;DHT22;10999;51.332;9.458;2023-08-30T14:20:35;21.00;42.10
21676;DHT22;10999;51.332;9.458;2023-08-30T14:23:02;21.10;41.90
21676;DHT22;10999;51.332;9.458;2023-08-30T14:25:29;21.00;40.70
21676;DHT22;10999;51.332;9.458;2023-08-30T14:27:56;20.80;43.00
21676;DHT22;10999;51.332;9.458;2023-08-30T14:30:22;20.90;43.00
21676;DHT22;10999;51.332;9.458;2023-08-30T14:32:50;21.00;44.70
21676;DHT22;10999;51.332;9.458;2023-08-30T14:35:18;21.10;41.40
21676;DHT22;10999;51.332;9.458;2023-08-30T14:37:47;21.20;44.40
21676;DHT22;10999;51.332;9.458;2023-08-30T14:40:14;21.30;44.80
21676;DHT22;10999;51.332;9.458;2023-08-30T14:42:40;21.30;42.90
21676;DHT22;10999;51.332;9.458;2023-08-30T14:45:07;21.30;42.40
21676;DHT22;10999;51.332;9.458;2023-08-30T14:47:34;21.20;44.00
21676;DHT22;10999;51.332;9.458;2023-08-30T14:50:01;21.00;41.80
21676;DHT22;10999;51.332;9.458;2023-08-30T14:52:29;20.80;41.70
21676;DHT22;10999;51.332;9.458;2023-08-30T14:54:56;20.50;43.90
21676;DHT22;10999;51.332;9.458;2023-08-30T14:57:22;20.40;44.70
21676;DHT22;10999;51.332;9.458;2023-08-30T14:59:51;20.20;44.70
21676;DHT22;10999;51.332;9.458;2023-08-30T15:02:18;20.00;48.60
21676;DHT22;10999;51.332;9.458;2023-08-30T15:04:44;19.80;55.20
21676;DHT22;10999;51.332;9.458;2023-08-30T15:07:11;19.50;64.20
21676;DHT22;10999;51.332;9.458;2023-08-30T15:09:38;19.20;72.20
21676;DHT22;10999;51.332;9.458;2023-08-30T15:12:05;18.70;72.90
21676;DHT22;10999;51.332;9.458;2023-08-30T15:14:32;18.70;78.70
21676;DHT22;10999;51.332;9.458;2023-08-30T15:17:00;18.60;80.00
21676;DHT22;10999;51.332;9.458;2023-08-30T15:19:27;18.60;82.00
21676;DHT22;10999;51.332;9.458;2023-08-30T15:21:54;18.60;83.70
21676;DHT22;10999;51.332;9.458;2023-08-30T15:24:20;18.40;77.50
21676;DHT22;10999;51.332;9.458;2023-08-30T15:26:47;18.50;79.70
21676;DHT22;10999;51.332;9.458;2023-08-30T15:29:15;18.60;81.90
21676;DHT22;10999;51.332;9.458;2023-08-30T15:31:42;18.60;81.80
21676;DHT22;10999;51.332;9.458;2023-08-30T15:34:09;18.70;79.40
21676;DHT22;10999;51.332;9.458;2023-08-30T15:36:36;18.80;78.00
21676;DHT22;10999;51.332;9.458;2023-08-30T15:39:03;18.80;77.10
21676;DHT22;10999;51.332;9.458;2023-08-30T15:41:30;18.80;78.60
21676;DHT22;10999;51.332;9.458;2023-08-30T15:43:56;18.70;76.50
21676;DHT22;10999;51.332;9.458;2023-08-30T15:46:23;18.70;76.70